Terminal Aerodrome Forecast
Issued by NWS Cleveland, OH

Home | Current Version | Previous Version | Text Only | Print | Product List | Glossary On
Versions: 1 2 3 4 5 6 7 8 9 10 11 12 13 14 15 16 17 18 19
000
FTUS41 KCLE 151500 AAA
TAFERI
TAF AMD
KERI 151507Z 1515/1612 30011G16KT 2SM -SN BR BKN006 OVC012
      TEMPO 1515/1516 4SM -SN BR OVC012
     FM151600 30012G18KT 6SM -SN BR OVC012
     FM151800 30015G25KT P6SM OVC015
      TEMPO 1518/1522 5SM -SHSN
     FM152200 32012KT P6SM OVC025
      TEMPO 1522/1602 5SM -SHSN
     FM160200 32009KT P6SM BKN045
     FM160400 28005KT P6SM SCT050 BKN250=

USA.gov is the U.S. government's official web portal to all federal, state and local government web resources and services.